Lost Springs, Wyoming
Current Conditions -  °F | °C
As of 12:15 AM on Wednesday 26 Nov 2014 (Local Time) from KGUR Reporting Station
Unknown Precip Unknown Precip  
Wind Chill: 25°   Ceiling: 2500
Heat Index: 33°   Visibility: 10mi
Dew Point: 29°   Wind: 12mph
Humidity: 85%   Direction: 310°NW
Pressure: 30.12"   Gusts: 18mph
Location:  42.77°N, 104.93°W
Report Text: KGUR 260715Z AUTO 31010G16KT 10SM UP SCT017 BKN025 01/M01 A3012 RMK AO2 T00081014
Loading
Personal Weather Stations






























Interactive Weather Map New forecast layout! Learn more

10-Day Weather Forecast

Advertisements
Track Severe Weather on mobile